Time,TemperatureF,DewpointF,PressureIn,WindDirection,WindDirectionDegrees,WindSpeedMPH,WindSpeedGustMPH,Humidity,HourlyPrecipIn,Conditions,Clouds,dailyrainin,SoftwareType,DateUTC
2013-03-28 00:03:00,41.4,40.3,30.00,East,98,0.0,0.0,96,0.00,OVC,OVC,0.05,WeatherDisplay:10.37,2013-03-28 07:03:00,
2013-03-28 00:08:00,41.4,40.3,30.00,East,98,0.0,0.0,96,0.00,OVC,OVC,0.05,WeatherDisplay:10.37,2013-03-28 07:08:00,
2013-03-28 00:18:00,41.3,40.2,30.01,East,101,0.0,0.0,96,0.00,OVC,OVC,0.05,WeatherDisplay:10.37,2013-03-28 07:18:00,
2013-03-28 00:23:00,41.1,40.0,30.00,East,101,0.0,0.0,96,0.00,OVC,OVC,0.05,WeatherDisplay:10.37,2013-03-28 07:23:00,
2013-03-28 00:28:00,40.9,39.8,30.00,East,101,0.0,0.0,96,0.00,OVC,OVC,0.05,WeatherDisplay:10.37,2013-03-28 07:28:00,
2013-03-28 00:33:00,40.7,39.6,30.01,East,101,0.0,0.0,96,0.00,OVC,OVC,0.05,WeatherDisplay:10.37,2013-03-28 07:33:00,
2013-03-28 00:38:00,40.6,39.5,30.01,East,101,0.0,0.0,96,0.00,OVC,OVC,0.05,WeatherDisplay:10.37,2013-03-28 07:38:00,
2013-03-28 00:43:00,40.6,39.5,30.01,East,101,0.0,0.0,96,0.00,OVC,OVC,0.05,WeatherDisplay:10.37,2013-03-28 07:43:00,
2013-03-28 00:48:00,40.6,39.8,30.01,East,101,0.0,0.0,97,0.00,OVC,OVC,0.05,WeatherDisplay:10.37,2013-03-28 07:48:00,
2013-03-28 00:53:00,40.7,39.9,30.01,East,101,0.0,0.0,97,0.00,OVC,OVC,0.05,WeatherDisplay:10.37,2013-03-28 07:53:00,
2013-03-28 00:58:00,40.7,39.9,30.01,East,101,0.0,0.0,97,0.00,OVC,OVC,0.05,WeatherDisplay:10.37,2013-03-28 07:58:00,
2013-03-28 01:03:00,40.6,39.8,30.02,East,101,0.0,0.0,97,0.00,SCT,SCT,0.05,WeatherDisplay:10.37,2013-03-28 08:03:00,
2013-03-28 01:08:00,40.5,39.7,30.02,East,101,0.0,0.0,97,0.00,SCT,SCT,0.05,WeatherDisplay:10.37,2013-03-28 08:08:00,
2013-03-28 01:13:00,40.6,39.8,30.02,East,101,0.0,0.0,97,0.00,SCT,SCT,0.05,WeatherDisplay:10.37,2013-03-28 08:13:00,
2013-03-28 01:18:00,40.8,40.0,30.01,East,101,0.0,0.0,97,0.00,SCT,SCT,0.05,WeatherDisplay:10.37,2013-03-28 08:18:00,
2013-03-28 01:23:00,40.9,40.1,30.01,East,101,0.0,0.0,97,0.00,SCT,SCT,0.05,WeatherDisplay:10.37,2013-03-28 08:23:00,
2013-03-28 01:28:00,41.2,40.4,30.01,East,100,0.0,0.0,97,0.00,SCT,SCT,0.05,WeatherDisplay:10.37,2013-03-28 08:28:00,
2013-03-28 01:33:00,41.3,40.5,30.02,East,101,0.0,0.0,97,0.00,SCT,SCT,0.05,WeatherDisplay:10.37,2013-03-28 08:33:00,
2013-03-28 01:38:00,41.3,40.5,30.02,East,101,0.0,0.0,97,0.00,SCT,SCT,0.05,WeatherDisplay:10.37,2013-03-28 08:38:00,
2013-03-28 01:43:00,41.2,40.4,30.02,East,101,0.0,0.0,97,0.00,SCT,SCT,0.05,WeatherDisplay:10.37,2013-03-28 08:43:00,
2013-03-28 01:48:00,41.1,40.3,30.02,East,101,0.0,0.0,97,0.00,SCT,SCT,0.05,WeatherDisplay:10.37,2013-03-28 08:48:00,
2013-03-28 01:53:00,40.9,40.1,30.02,East,101,0.0,0.0,97,0.00,SCT,SCT,0.05,WeatherDisplay:10.37,2013-03-28 08:53:00,
2013-03-28 01:58:00,40.9,40.1,30.02,East,101,0.0,0.0,97,0.00,SCT,SCT,0.05,WeatherDisplay:10.37,2013-03-28 08:58:00,
2013-03-28 02:03:00,40.9,40.1,30.02,East,101,0.0,0.0,97,0.00,SCT,SCT,0.05,WeatherDisplay:10.37,2013-03-28 09:03:00,
2013-03-28 02:08:00,41.1,40.3,30.02,East,101,0.0,0.0,97,0.00,SCT,SCT,0.05,WeatherDisplay:10.37,2013-03-28 09:08:00,
2013-03-28 02:13:00,41.1,40.3,30.02,East,101,0.0,0.0,97,0.00,SCT,SCT,0.05,WeatherDisplay:10.37,2013-03-28 09:13:00,
2013-03-28 02:18:00,41.1,40.3,30.02,East,101,0.0,0.0,97,0.00,SCT,SCT,0.05,WeatherDisplay:10.37,2013-03-28 09:18:00,
2013-03-28 02:23:00,41.4,40.6,30.03,ESE,102,0.0,0.0,97,0.00,SCT,SCT,0.05,WeatherDisplay:10.37,2013-03-28 09:23:00,
2013-03-28 02:28:00,41.5,40.7,30.03,ESE,102,0.0,0.0,97,0.00,SCT,SCT,0.05,WeatherDisplay:10.37,2013-03-28 09:28:00,
2013-03-28 02:33:00,41.5,40.7,30.03,East,101,0.0,0.0,97,0.00,SCT,SCT,0.05,WeatherDisplay:10.37,2013-03-28 09:33:00,
2013-03-28 02:38:00,41.5,40.7,30.03,East,101,0.0,0.0,97,0.00,SCT,SCT,0.05,WeatherDisplay:10.37,2013-03-28 09:38:00,
2013-03-28 02:43:00,41.6,40.8,30.03,East,101,0.0,0.0,97,0.00,SCT,SCT,0.05,WeatherDisplay:10.37,2013-03-28 09:43:00,
2013-03-28 02:48:00,41.6,40.8,30.03,East,101,0.0,0.0,97,0.00,SCT,SCT,0.05,WeatherDisplay:10.37,2013-03-28 09:48:00,
2013-03-28 02:53:00,41.7,40.9,30.03,East,101,0.0,0.0,97,0.00,SCT,SCT,0.05,WeatherDisplay:10.37,2013-03-28 09:53:00,
2013-03-28 02:58:00,41.8,41.0,30.03,East,101,0.0,0.0,97,0.00,SCT,SCT,0.05,WeatherDisplay:10.37,2013-03-28 09:58:00,
2013-03-28 03:03:00,41.8,41.0,30.03,East,101,0.0,0.0,97,0.00,SCT,SCT,0.05,WeatherDisplay:10.37,2013-03-28 10:03:00,
2013-03-28 03:08:00,41.9,41.1,30.03,East,101,0.0,0.0,97,0.00,SCT,SCT,0.05,WeatherDisplay:10.37,2013-03-28 10:08:00,
2013-03-28 03:13:00,42.0,41.2,30.03,East,101,0.0,0.0,97,0.00,SCT,SCT,0.05,WeatherDisplay:10.37,2013-03-28 10:13:00,
2013-03-28 03:18:00,42.1,41.3,30.03,East,101,0.0,0.0,97,0.00,SCT,SCT,0.05,WeatherDisplay:10.37,2013-03-28 10:18:00,
2013-03-28 03:23:00,42.2,41.4,30.03,ESE,102,0.0,0.0,97,0.00,SCT,SCT,0.05,WeatherDisplay:10.37,2013-03-28 10:23:00,
2013-03-28 03:28:00,42.3,41.5,30.03,ESE,102,0.0,0.0,97,0.00,SCT,SCT,0.05,WeatherDisplay:10.37,2013-03-28 10:28:00,
2013-03-28 03:33:00,42.3,41.5,30.03,ESE,102,0.0,0.0,97,0.00,SCT,SCT,0.05,WeatherDisplay:10.37,2013-03-28 10:33:00,
2013-03-28 03:38:00,42.5,41.7,30.02,ESE,102,0.0,0.0,97,0.00,SCT,SCT,0.05,WeatherDisplay:10.37,2013-03-28 10:38:00,
2013-03-28 03:43:00,42.6,41.8,30.02,ESE,102,0.0,0.0,97,0.00,SCT,SCT,0.05,WeatherDisplay:10.37,2013-03-28 10:43:00,
2013-03-28 03:48:00,42.6,41.8,30.03,East,101,0.0,0.0,97,0.00,SCT,SCT,0.05,WeatherDisplay:10.37,2013-03-28 10:48:00,
2013-03-28 03:53:00,42.6,41.8,30.03,East,101,0.0,0.0,97,0.00,SCT,SCT,0.05,WeatherDisplay:10.37,2013-03-28 10:53:00,
2013-03-28 03:58:00,42.6,41.8,30.03,ESE,102,0.0,0.0,97,0.00,SCT,SCT,0.05,WeatherDisplay:10.37,2013-03-28 10:58:00,
2013-03-28 04:03:00,42.5,41.7,30.03,SE,125,0.0,1.0,97,0.00,SCT,SCT,0.05,WeatherDisplay:10.37,2013-03-28 11:03:00,
2013-03-28 04:08:00,42.4,41.6,30.04,SW,219,0.0,1.0,97,0.00,SCT,SCT,0.05,WeatherDisplay:10.37,2013-03-28 11:08:00,
2013-03-28 04:13:00,42.4,41.6,30.04,WSW,242,0.0,0.0,97,0.00,SCT,SCT,0.05,WeatherDisplay:10.37,2013-03-28 11:13:00,
2013-03-28 04:18:00,42.5,41.7,30.04,WSW,243,0.0,0.0,97,0.00,SCT,SCT,0.05,WeatherDisplay:10.37,2013-03-28 11:18:00,
2013-03-28 04:23:00,42.5,41.7,30.04,WSW,243,0.0,1.0,97,0.00,SCT,SCT,0.05,WeatherDisplay:10.37,2013-03-28 11:23:00,
2013-03-28 04:28:00,42.6,41.8,30.05,WSW,243,0.0,0.0,97,0.00,SCT,SCT,0.05,WeatherDisplay:10.37,2013-03-28 11:28:00,
2013-03-28 04:33:00,42.7,41.9,30.05,WSW,243,0.0,0.0,97,0.00,SCT,SCT,0.05,WeatherDisplay:10.37,2013-03-28 11:33:00,
2013-03-28 04:38:00,42.8,42.0,30.05,WSW,243,0.0,0.0,97,0.00,SCT,SCT,0.05,WeatherDisplay:10.37,2013-03-28 11:38:00,
2013-03-28 04:43:00,42.9,42.1,30.05,WSW,243,0.0,0.0,97,0.00,SCT,SCT,0.05,WeatherDisplay:10.37,2013-03-28 11:43:00,
2013-03-28 04:48:00,43.0,42.2,30.05,WSW,243,0.0,0.0,97,0.00,SCT,SCT,0.05,WeatherDisplay:10.37,2013-03-28 11:48:00,
2013-03-28 04:53:00,43.0,42.2,30.05,WSW,243,0.0,0.0,97,0.00,SCT,SCT,0.05,WeatherDisplay:10.37,2013-03-28 11:53:00,
2013-03-28 04:58:00,43.1,42.3,30.05,WSW,242,0.0,0.0,97,0.00,SCT,SCT,0.05,WeatherDisplay:10.37,2013-03-28 11:58:00,
2013-03-28 05:03:00,43.1,42.3,30.05,WSW,242,0.0,0.0,97,0.00,SCT,SCT,0.05,WeatherDisplay:10.37,2013-03-28 12:03:00,
2013-03-28 05:08:00,43.1,42.3,30.06,WSW,242,0.0,0.0,97,0.00,SCT,SCT,0.05,WeatherDisplay:10.37,2013-03-28 12:08:00,
2013-03-28 05:13:00,43.2,42.4,30.06,WSW,242,0.0,0.0,97,0.00,SCT,SCT,0.05,WeatherDisplay:10.37,2013-03-28 12:13:00,
2013-03-28 05:18:00,43.2,42.4,30.06,WSW,242,0.0,0.0,97,0.01,RA,RA,0.06,WeatherDisplay:10.37,2013-03-28 12:18:00,
2013-03-28 05:23:00,43.3,42.5,30.06,WSW,242,0.0,0.0,97,0.00,RA,RA,0.06,WeatherDisplay:10.37,2013-03-28 12:23:00,
2013-03-28 05:28:00,43.3,42.5,30.06,WSW,242,0.0,0.0,97,0.01,RA,RA,0.07,WeatherDisplay:10.37,2013-03-28 12:28:00,
2013-03-28 05:33:00,43.4,42.6,30.06,WSW,242,0.0,0.0,97,0.00,RA,RA,0.07,WeatherDisplay:10.37,2013-03-28 12:33:00,
2013-03-28 05:38:00,43.5,42.7,30.07,WSW,242,0.0,0.0,97,0.00,SCT,SCT,0.07,WeatherDisplay:10.37,2013-03-28 12:38:00,
2013-03-28 05:43:00,43.5,42.7,30.06,WSW,242,0.0,0.0,97,0.01,RA,RA,0.08,WeatherDisplay:10.37,2013-03-28 12:43:00,
2013-03-28 05:48:00,43.6,42.8,30.06,WSW,242,0.0,0.0,97,0.00,RA,RA,0.08,WeatherDisplay:10.37,2013-03-28 12:48:00,
2013-03-28 05:53:00,43.7,42.9,30.06,WSW,242,0.0,0.0,97,0.01,RA,RA,0.09,WeatherDisplay:10.37,2013-03-28 12:53:00,
2013-03-28 05:58:00,43.8,43.0,30.07,WSW,242,0.0,0.0,97,0.01,RA,RA,0.10,WeatherDisplay:10.37,2013-03-28 12:58:00,
2013-03-28 06:03:00,43.8,43.0,30.07,WSW,242,0.0,0.0,97,0.00,RA,RA,0.10,WeatherDisplay:10.37,2013-03-28 13:03:00,
2013-03-28 06:08:00,43.7,43.0,30.07,WSW,242,0.0,0.0,97,0.00,SCT,SCT,0.10,WeatherDisplay:10.37,2013-03-28 13:08:00,
2013-03-28 06:13:00,43.7,42.9,30.07,WSW,242,0.0,0.0,97,0.00,SCT,SCT,0.10,WeatherDisplay:10.37,2013-03-28 13:13:00,
2013-03-28 06:18:00,43.7,42.9,30.07,WSW,242,0.0,0.0,97,0.00,SCT,SCT,0.10,WeatherDisplay:10.37,2013-03-28 13:18:00,
2013-03-28 06:23:00,43.7,42.9,30.07,WSW,242,0.0,0.0,97,0.01,RA,RA,0.11,WeatherDisplay:10.37,2013-03-28 13:23:00,
2013-03-28 06:28:00,43.7,42.9,30.07,WSW,242,0.0,0.0,97,0.00,RA,RA,0.11,WeatherDisplay:10.37,2013-03-28 13:28:00,
2013-03-28 06:33:00,43.7,42.9,30.07,WSW,242,0.0,0.0,97,0.00,SCT,SCT,0.11,WeatherDisplay:10.37,2013-03-28 13:33:00,
2013-03-28 06:38:00,43.8,43.0,30.06,WSW,242,0.0,1.0,97,0.00,SCT,SCT,0.11,WeatherDisplay:10.37,2013-03-28 13:38:00,
2013-03-28 06:43:00,43.9,43.1,30.06,WSW,242,0.0,1.0,97,0.00,SCT,SCT,0.11,WeatherDisplay:10.37,2013-03-28 13:43:00,
2013-03-28 06:48:00,44.0,43.2,30.07,WSW,242,0.0,0.0,97,0.00,SCT,SCT,0.11,WeatherDisplay:10.37,2013-03-28 13:48:00,
2013-03-28 06:53:00,44.0,43.2,30.07,WSW,240,0.0,1.0,97,0.00,SCT,SCT,0.11,WeatherDisplay:10.37,2013-03-28 13:53:00,
2013-03-28 06:58:00,44.0,43.2,30.07,WSW,238,0.0,0.0,97,0.00,SCT,SCT,0.11,WeatherDisplay:10.37,2013-03-28 13:58:00,
2013-03-28 07:03:00,44.0,43.2,30.07,WSW,237,0.0,0.0,97,0.00,RA,RA,0.00,WeatherDisplay:10.37,2013-03-28 14:03:00,
2013-03-28 07:08:00,44.0,43.2,30.07,WSW,237,0.0,0.0,97,0.00,RA,RA,0.00,WeatherDisplay:10.37,2013-03-28 14:08:00,
2013-03-28 07:13:00,44.0,43.2,30.07,WSW,237,0.0,0.0,97,0.00,SCT,SCT,0.00,WeatherDisplay:10.37,2013-03-28 14:13:00,
2013-03-28 07:18:00,43.9,43.1,30.08,WSW,242,0.0,0.0,97,0.00,SCT,SCT,0.00,WeatherDisplay:10.37,2013-03-28 14:18:00,
2013-03-28 07:23:00,43.9,43.1,30.08,WSW,247,0.0,0.0,97,0.00,SCT,SCT,0.00,WeatherDisplay:10.37,2013-03-28 14:23:00,
2013-03-28 07:28:00,43.9,43.1,30.08,WSW,248,0.0,0.0,97,0.00,SCT,SCT,0.00,WeatherDisplay:10.37,2013-03-28 14:28:00,
2013-03-28 07:33:00,43.9,43.1,30.08,WSW,248,0.0,0.0,97,0.01,RA,RA,0.01,WeatherDisplay:10.37,2013-03-28 14:33:00,
2013-03-28 07:38:00,44.0,43.2,30.08,WSW,248,0.0,0.0,97,0.00,RA,RA,0.01,WeatherDisplay:10.37,2013-03-28 14:38:00,
2013-03-28 07:43:00,44.1,43.3,30.08,WSW,248,0.0,0.0,97,0.00,SCT,SCT,0.01,WeatherDisplay:10.37,2013-03-28 14:43:00,
2013-03-28 07:48:00,44.2,43.4,30.09,WSW,248,0.0,0.0,97,0.00,SCT,SCT,0.01,WeatherDisplay:10.37,2013-03-28 14:48:00,
2013-03-28 07:53:00,44.3,43.5,30.09,WSW,248,0.0,0.0,97,0.00,SCT,SCT,0.01,WeatherDisplay:10.37,2013-03-28 14:53:00,
2013-03-28 07:58:00,44.4,43.6,30.09,WSW,248,0.0,0.0,97,0.00,SCT,SCT,0.01,WeatherDisplay:10.37,2013-03-28 14:58:00,
2013-03-28 08:03:00,44.5,43.7,30.09,WSW,248,0.0,0.0,97,0.00,SCT,SCT,0.01,WeatherDisplay:10.37,2013-03-28 15:03:00,
2013-03-28 08:08:00,44.7,43.9,30.09,WSW,248,0.0,0.0,97,0.00,SCT,SCT,0.01,WeatherDisplay:10.37,2013-03-28 15:08:00,
2013-03-28 08:13:00,44.9,44.1,30.09,WSW,248,0.0,0.0,97,0.00,SCT,SCT,0.01,WeatherDisplay:10.37,2013-03-28 15:13:00,
2013-03-28 08:18:00,45.1,44.3,30.09,WSW,248,0.0,0.0,97,0.00,SCT,SCT,0.01,WeatherDisplay:10.37,2013-03-28 15:18:00,
2013-03-28 08:23:00,45.3,44.5,30.09,WSW,248,0.0,0.0,97,0.00,SCT,SCT,0.01,WeatherDisplay:10.37,2013-03-28 15:23:00,
2013-03-28 08:28:00,45.6,44.8,30.09,WSW,248,0.0,0.0,97,0.00,SCT,SCT,0.01,WeatherDisplay:10.37,2013-03-28 15:28:00,
2013-03-28 08:33:00,45.7,44.9,30.09,WSW,248,0.0,0.0,97,0.00,SCT,SCT,0.01,WeatherDisplay:10.37,2013-03-28 15:33:00,
2013-03-28 08:38:00,45.8,45.0,30.09,WSW,248,0.0,0.0,97,0.00,SCT,SCT,0.01,WeatherDisplay:10.37,2013-03-28 15:38:00,
2013-03-28 08:43:00,45.9,45.1,30.09,WSW,248,0.0,0.0,97,0.00,SCT,SCT,0.01,WeatherDisplay:10.37,2013-03-28 15:43:00,
2013-03-28 08:53:00,46.1,45.3,30.09,WSW,248,0.0,0.0,97,0.00,SCT,SCT,0.01,WeatherDisplay:10.37,2013-03-28 15:53:00,
2013-03-28 08:58:00,46.3,45.5,30.09,WSW,248,0.0,0.0,97,0.00,SCT,SCT,0.01,WeatherDisplay:10.37,2013-03-28 15:58:00,
2013-03-28 09:03:00,46.4,45.6,30.09,WSW,248,0.0,0.0,97,0.00,SCT,SCT,0.01,WeatherDisplay:10.37,2013-03-28 16:03:00,
2013-03-28 09:08:00,46.6,45.8,30.09,WSW,248,0.0,0.0,97,0.00,SCT,SCT,0.01,WeatherDisplay:10.37,2013-03-28 16:08:00,
2013-03-28 09:13:00,46.7,45.9,30.09,WSW,248,0.0,0.0,97,0.00,SCT,SCT,0.01,WeatherDisplay:10.37,2013-03-28 16:13:00,
2013-03-28 09:18:00,46.9,46.1,30.09,WSW,246,0.0,0.0,97,0.00,SCT,SCT,0.01,WeatherDisplay:10.37,2013-03-28 16:18:00,
2013-03-28 09:23:00,46.9,46.1,30.09,WSW,240,0.0,0.0,97,0.00,SCT,SCT,0.01,WeatherDisplay:10.37,2013-03-28 16:23:00,
2013-03-28 09:28:00,47.1,46.3,30.09,WSW,238,0.0,0.0,97,0.00,SCT,SCT,0.01,WeatherDisplay:10.37,2013-03-28 16:28:00,
2013-03-28 09:33:00,47.4,46.6,30.09,WSW,238,0.0,0.0,97,0.00,SCT,SCT,0.01,WeatherDisplay:10.37,2013-03-28 16:33:00,
2013-03-28 09:38:00,47.8,47.0,30.09,WSW,238,0.0,0.0,97,0.00,SCT,SCT,0.01,WeatherDisplay:10.37,2013-03-28 16:38:00,
2013-03-28 09:43:00,48.1,47.3,30.09,WSW,238,0.0,0.0,97,0.00,SCT,SCT,0.01,WeatherDisplay:10.37,2013-03-28 16:43:00,
2013-03-28 09:48:00,48.5,47.7,30.09,WSW,238,0.0,0.0,97,0.00,SCT,SCT,0.01,WeatherDisplay:10.37,2013-03-28 16:48:00,
2013-03-28 09:53:00,48.9,48.1,30.10,WSW,238,0.0,0.0,97,0.00,SCT,SCT,0.01,WeatherDisplay:10.37,2013-03-28 16:53:00,
2013-03-28 09:58:00,49.2,48.4,30.10,WSW,238,0.0,0.0,97,0.00,SCT,SCT,0.01,WeatherDisplay:10.37,2013-03-28 16:58:00,
2013-03-28 10:03:00,49.5,48.7,30.10,WSW,238,0.0,0.0,97,0.00,SCT,SCT,0.01,WeatherDisplay:10.37,2013-03-28 17:03:00,
2013-03-28 10:08:00,49.4,48.3,30.10,WSW,238,0.0,0.0,96,0.00,SCT,SCT,0.01,WeatherDisplay:10.37,2013-03-28 17:08:00,
2013-03-28 10:13:00,49.7,48.6,30.10,WSW,238,0.0,0.0,96,0.00,SCT,SCT,0.01,WeatherDisplay:10.37,2013-03-28 17:13:00,
2013-03-28 10:18:00,50.1,49.0,30.10,WSW,238,0.0,0.0,96,0.00,SCT,SCT,0.01,WeatherDisplay:10.37,2013-03-28 17:18:00,
2013-03-28 10:23:00,50.3,49.2,30.10,WSW,238,0.0,0.0,96,0.00,SCT,SCT,0.01,WeatherDisplay:10.37,2013-03-28 17:23:00,
2013-03-28 10:28:00,50.5,49.1,30.10,WSW,238,0.0,0.0,95,0.00,SCT,SCT,0.01,WeatherDisplay:10.37,2013-03-28 17:28:00,
2013-03-28 10:33:00,50.7,49.3,30.10,WSW,238,0.0,0.0,95,0.00,SCT,SCT,0.01,WeatherDisplay:10.37,2013-03-28 17:33:00,
2013-03-28 10:38:00,50.8,49.2,30.10,WSW,238,0.0,0.0,94,0.00,SCT,SCT,0.01,WeatherDisplay:10.37,2013-03-28 17:38:00,
2013-03-28 10:43:00,50.8,48.9,30.10,WSW,238,0.0,0.0,93,0.00,SCT,SCT,0.01,WeatherDisplay:10.37,2013-03-28 17:43:00,
2013-03-28 10:48:00,50.9,48.9,30.10,WSW,239,0.0,0.0,93,0.00,SCT,SCT,0.01,WeatherDisplay:10.37,2013-03-28 17:48:00,
2013-03-28 10:53:00,51.2,49.2,30.11,WSW,240,0.0,0.0,93,0.00,SCT,SCT,0.01,WeatherDisplay:10.37,2013-03-28 17:53:00,
2013-03-28 10:58:00,51.7,49.7,30.11,WSW,239,0.0,0.0,93,0.00,SCT,SCT,0.01,WeatherDisplay:10.37,2013-03-28 17:58:00,
2013-03-28 11:03:00,52.2,49.9,30.11,WSW,240,0.0,0.0,92,0.00,SCT,SCT,0.01,WeatherDisplay:10.37,2013-03-28 18:03:00,
2013-03-28 11:08:00,52.6,50.3,30.11,WSW,244,0.0,0.0,92,0.00,SCT,SCT,0.01,WeatherDisplay:10.37,2013-03-28 18:08:00,
2013-03-28 11:13:00,52.9,50.4,30.11,WSW,245,0.0,0.0,91,0.00,SCT,SCT,0.01,WeatherDisplay:10.37,2013-03-28 18:13:00,
2013-03-28 11:18:00,52.8,49.3,30.11,WSW,246,0.0,0.0,88,0.00,SCT,SCT,0.01,WeatherDisplay:10.37,2013-03-28 18:18:00,
2013-03-28 11:23:00,53.0,50.1,30.11,WSW,246,0.0,0.0,90,0.00,SCT,SCT,0.01,WeatherDisplay:10.37,2013-03-28 18:23:00,
2013-03-28 11:28:00,53.1,49.7,30.11,WSW,246,0.0,0.0,88,0.00,SCT,SCT,0.01,WeatherDisplay:10.37,2013-03-28 18:28:00,
2013-03-28 11:33:00,53.4,49.7,30.11,WSW,246,0.0,0.0,87,0.00,SCT,SCT,0.01,WeatherDisplay:10.37,2013-03-28 18:33:00,
2013-03-28 11:38:00,54.0,50.8,30.11,WSW,248,0.0,0.0,89,0.00,SCT,SCT,0.01,WeatherDisplay:10.37,2013-03-28 18:38:00,
2013-03-28 11:48:00,54.9,50.5,30.10,West,268,0.0,1.0,85,0.00,SCT,SCT,0.01,WeatherDisplay:10.37,2013-03-28 18:48:00,
2013-03-28 11:53:00,55.4,51.6,30.10,West,276,0.0,0.0,87,0.00,SCT,SCT,0.01,WeatherDisplay:10.37,2013-03-28 18:53:00,
2013-03-28 11:58:00,56.7,52.5,30.10,West,281,1.0,2.0,86,0.00,SCT,SCT,0.01,WeatherDisplay:10.37,2013-03-28 18:58:00,
2013-03-28 12:03:00,57.6,51.5,30.10,WNW,286,1.0,3.0,80,0.00,SCT,SCT,0.01,WeatherDisplay:10.37,2013-03-28 19:03:00,
2013-03-28 12:08:00,58.6,52.4,30.09,WNW,296,0.0,2.0,80,0.00,SCT,SCT,0.01,WeatherDisplay:10.37,2013-03-28 19:08:00,
2013-03-28 12:13:00,59.3,51.8,30.09,NNW,335,0.0,1.0,76,0.00,SCT,SCT,0.01,WeatherDisplay:10.37,2013-03-28 19:13:00,
2013-03-28 12:18:00,60.0,52.1,30.09,NNE,13,0.0,2.0,75,0.00,SCT,SCT,0.01,WeatherDisplay:10.37,2013-03-28 19:18:00,
2013-03-28 12:23:00,60.4,52.4,30.09,North,1,0.0,2.0,75,0.00,SCT,SCT,0.01,WeatherDisplay:10.37,2013-03-28 19:23:00,
2013-03-28 12:28:00,61.0,52.2,30.09,WNW,301,1.0,3.0,73,0.00,SCT,SCT,0.01,WeatherDisplay:10.37,2013-03-28 19:28:00,
2013-03-28 12:33:00,61.2,53.6,30.09,NW,306,0.0,1.0,76,0.00,SCT,SCT,0.01,WeatherDisplay:10.37,2013-03-28 19:33:00,
2013-03-28 12:43:00,62.5,51.8,30.09,WSW,248,1.0,3.0,68,0.00,SCT,SCT,0.01,WeatherDisplay:10.37,2013-03-28 19:43:00,
2013-03-28 12:48:00,62.4,50.9,30.09,WSW,238,1.0,3.0,66,0.00,SCT,SCT,0.01,WeatherDisplay:10.37,2013-03-28 19:48:00,
2013-03-28 12:53:00,62.4,52.1,30.09,SW,228,2.0,5.0,69,0.00,SCT,SCT,0.01,WeatherDisplay:10.37,2013-03-28 19:53:00,
2013-03-28 12:58:00,62.0,52.5,30.09,West,268,0.0,4.0,71,0.00,SCT,SCT,0.01,WeatherDisplay:10.37,2013-03-28 19:58:00,
2013-03-28 13:03:00,61.8,51.1,30.10,NW,304,1.0,4.0,68,0.00,SCT,SCT,0.01,WeatherDisplay:10.37,2013-03-28 20:03:00,
2013-03-28 13:08:00,61.9,50.4,30.10,West,261,1.0,3.0,66,0.00,SCT,SCT,0.01,WeatherDisplay:10.37,2013-03-28 20:08:00,
2013-03-28 13:13:00,60.5,49.9,30.10,SW,224,0.0,3.0,68,0.00,SCT,SCT,0.01,WeatherDisplay:10.37,2013-03-28 20:13:00,
2013-03-28 13:18:00,59.7,49.9,30.10,SSW,202,1.0,3.0,70,0.00,SCT,SCT,0.01,WeatherDisplay:10.37,2013-03-28 20:18:00,
2013-03-28 13:23:00,59.2,49.8,30.10,East,97,0.0,3.0,71,0.00,SCT,SCT,0.01,WeatherDisplay:10.37,2013-03-28 20:23:00,
2013-03-28 13:28:00,59.1,49.7,30.10,WNW,287,1.0,4.0,71,0.00,SCT,SCT,0.01,WeatherDisplay:10.37,2013-03-28 20:28:00,
2013-03-28 13:33:00,58.9,48.7,30.10,WSW,238,1.0,4.0,69,0.00,SCT,SCT,0.01,WeatherDisplay:10.37,2013-03-28 20:33:00,
2013-03-28 13:38:00,58.9,48.4,30.10,SW,223,0.0,2.0,68,0.00,SCT,SCT,0.01,WeatherDisplay:10.37,2013-03-28 20:38:00,
2013-03-28 13:43:00,59.3,48.7,30.10,SW,231,0.0,2.0,68,0.00,SCT,SCT,0.01,WeatherDisplay:10.37,2013-03-28 20:43:00,
2013-03-28 13:48:00,59.5,49.7,30.10,WSW,239,1.0,4.0,70,0.00,SCT,SCT,0.01,WeatherDisplay:10.37,2013-03-28 20:48:00,
2013-03-28 13:53:00,59.1,48.9,30.10,WSW,239,1.0,3.0,69,0.00,SCT,SCT,0.01,WeatherDisplay:10.37,2013-03-28 20:53:00,
2013-03-28 13:58:00,59.1,49.3,30.10,SSW,203,0.0,3.0,70,0.00,SCT,SCT,0.01,WeatherDisplay:10.37,2013-03-28 20:58:00,
2013-03-28 14:03:00,59.2,49.4,30.10,SSW,202,1.0,2.0,70,0.00,SCT,SCT,0.01,WeatherDisplay:10.37,2013-03-28 21:03:00,
2013-03-28 14:08:00,59.2,49.4,30.10,SSW,213,0.0,3.0,70,0.00,SCT,SCT,0.01,WeatherDisplay:10.37,2013-03-28 21:08:00,
2013-03-28 14:13:00,59.6,49.4,30.09,WSW,238,0.0,2.0,69,0.00,SCT,SCT,0.01,WeatherDisplay:10.37,2013-03-28 21:13:00,
2013-03-28 14:18:00,60.0,49.4,30.09,WSW,244,0.0,3.0,68,0.00,SCT,SCT,0.01,WeatherDisplay:10.37,2013-03-28 21:18:00,
2013-03-28 14:23:00,60.3,48.9,30.09,WSW,243,1.0,3.0,66,0.00,SCT,SCT,0.01,WeatherDisplay:10.37,2013-03-28 21:23:00,
2013-03-28 14:28:00,60.4,49.0,30.09,SW,225,0.0,1.0,66,0.00,SCT,SCT,0.01,WeatherDisplay:10.37,2013-03-28 21:28:00,
2013-03-28 14:33:00,61.3,49.0,30.09,SW,222,1.0,3.0,64,0.00,SCT,SCT,0.01,WeatherDisplay:10.37,2013-03-28 21:33:00,
2013-03-28 14:38:00,61.2,49.3,30.09,SW,231,1.0,3.0,65,0.00,SCT,SCT,0.01,WeatherDisplay:10.37,2013-03-28 21:38:00,
2013-03-28 14:43:00,61.5,48.8,30.09,West,259,0.0,2.0,63,0.00,SCT,SCT,0.01,WeatherDisplay:10.37,2013-03-28 21:43:00,
2013-03-28 14:48:00,61.7,48.1,30.09,West,261,1.0,3.0,61,0.00,SCT,SCT,0.01,WeatherDisplay:10.37,2013-03-28 21:48:00,
2013-03-28 14:53:00,61.3,47.7,30.09,WSW,241,0.0,2.0,61,0.00,SCT,SCT,0.01,WeatherDisplay:10.37,2013-03-28 21:53:00,
2013-03-28 14:58:00,61.0,47.5,30.09,SW,235,0.0,3.0,61,0.00,SCT,SCT,0.01,WeatherDisplay:10.37,2013-03-28 21:58:00,
2013-03-28 15:03:00,61.1,48.8,30.09,WSW,243,0.0,3.0,64,0.00,SCT,SCT,0.01,WeatherDisplay:10.37,2013-03-28 22:03:00,
2013-03-28 15:08:00,61.1,47.9,30.09,West,264,1.0,3.0,62,0.00,SCT,SCT,0.01,WeatherDisplay:10.37,2013-03-28 22:08:00,
2013-03-28 15:13:00,61.3,48.1,30.08,West,263,0.0,2.0,62,0.00,SCT,SCT,0.01,WeatherDisplay:10.37,2013-03-28 22:13:00,
2013-03-28 15:18:00,61.5,48.8,30.08,WSW,253,0.0,3.0,63,0.00,SCT,SCT,0.01,WeatherDisplay:10.37,2013-03-28 22:18:00,
2013-03-28 15:23:00,60.9,48.2,30.08,WSW,252,0.0,3.0,63,0.00,SCT,SCT,0.01,WeatherDisplay:10.37,2013-03-28 22:23:00,
2013-03-28 15:28:00,61.2,48.5,30.08,WSW,247,0.0,1.0,63,0.00,SCT,SCT,0.01,WeatherDisplay:10.37,2013-03-28 22:28:00,
2013-03-28 15:33:00,62.0,48.0,30.08,SW,231,0.0,2.0,60,0.00,SCT,SCT,0.01,WeatherDisplay:10.37,2013-03-28 22:33:00,
2013-03-28 15:38:00,62.1,47.6,30.08,SSW,208,0.0,2.0,59,0.00,SCT,SCT,0.01,WeatherDisplay:10.37,2013-03-28 22:38:00,
2013-03-28 15:43:00,62.5,48.0,30.08,SW,223,0.0,2.0,59,0.00,SCT,SCT,0.01,WeatherDisplay:10.37,2013-03-28 22:43:00,
2013-03-28 15:48:00,62.9,47.9,30.08,WSW,246,1.0,3.0,58,0.00,SCT,SCT,0.01,WeatherDisplay:10.37,2013-03-28 22:48:00,
2013-03-28 15:53:00,63.1,49.0,30.08,SW,231,0.0,1.0,60,0.00,SCT,SCT,0.01,WeatherDisplay:10.37,2013-03-28 22:53:00,
2013-03-28 15:58:00,63.1,47.1,30.08,WSW,252,0.0,3.0,56,0.00,SCT,SCT,0.01,WeatherDisplay:10.37,2013-03-28 22:58:00,
2013-03-28 16:03:00,63.2,47.7,30.08,West,265,0.0,3.0,57,0.00,SCT,SCT,0.01,WeatherDisplay:10.37,2013-03-28 23:03:00,
2013-03-28 16:08:00,62.6,46.2,30.08,WSW,240,0.0,3.0,55,0.00,SCT,SCT,0.01,WeatherDisplay:10.37,2013-03-28 23:08:00,
2013-03-28 16:13:00,62.1,46.6,30.08,SW,235,1.0,3.0,57,0.00,SCT,SCT,0.01,WeatherDisplay:10.37,2013-03-28 23:13:00,
2013-03-28 16:18:00,61.3,46.4,30.08,WSW,243,1.0,3.0,58,0.00,SCT,SCT,0.01,WeatherDisplay:10.37,2013-03-28 23:18:00,
2013-03-28 16:23:00,60.7,46.7,30.08,SW,231,1.0,3.0,60,0.00,SCT,SCT,0.01,WeatherDisplay:10.37,2013-03-28 23:23:00,
2013-03-28 16:28:00,60.1,46.6,30.09,SW,215,0.0,3.0,61,0.00,SCT,SCT,0.01,WeatherDisplay:10.37,2013-03-28 23:28:00,
2013-03-28 16:33:00,59.5,46.9,30.09,SW,217,1.0,4.0,63,0.00,SCT,SCT,0.01,WeatherDisplay:10.37,2013-03-28 23:33:00,
2013-03-28 16:38:00,58.8,46.2,30.09,WSW,258,1.0,5.0,63,0.00,SCT,SCT,0.01,WeatherDisplay:10.37,2013-03-28 23:38:00,
2013-03-28 16:48:00,57.5,46.6,30.10,SW,217,1.0,3.0,67,0.00,SCT,SCT,0.01,WeatherDisplay:10.37,2013-03-28 23:48:00,
2013-03-28 16:53:00,56.8,45.9,30.10,WSW,242,1.0,5.0,67,0.00,SCT,SCT,0.01,WeatherDisplay:10.37,2013-03-28 23:53:00,
2013-03-28 16:58:00,55.5,47.0,30.10,WSW,255,1.0,6.0,73,0.01,RA,RA,0.02,WeatherDisplay:10.37,2013-03-28 23:58:00,
2013-03-28 17:03:00,54.7,48.0,30.10,SW,235,0.0,1.0,78,0.01,RA,RA,0.03,WeatherDisplay:10.37,2013-03-29 00:03:00,
2013-03-28 17:08:00,54.1,48.1,30.10,SW,219,0.0,2.0,80,0.00,RA,RA,0.03,WeatherDisplay:10.37,2013-03-29 00:08:00,
2013-03-28 17:13:00,53.9,48.9,30.09,East,86,0.0,0.0,83,0.00,SCT,SCT,0.03,WeatherDisplay:10.37,2013-03-29 00:13:00,
2013-03-28 17:18:00,53.7,48.7,30.09,East,86,0.0,0.0,83,0.00,SCT,SCT,0.03,WeatherDisplay:10.37,2013-03-29 00:18:00,
2013-03-28 17:28:00,54.1,49.0,30.09,ENE,74,0.0,0.0,83,0.00,SCT,SCT,0.03,WeatherDisplay:10.37,2013-03-29 00:28:00,
2013-03-28 17:33:00,54.2,48.5,30.09,East,101,0.0,0.0,81,0.00,SCT,SCT,0.03,WeatherDisplay:10.37,2013-03-29 00:33:00,
2013-03-28 17:38:00,54.6,49.5,30.09,SW,214,0.0,0.0,83,0.00,SCT,SCT,0.03,WeatherDisplay:10.37,2013-03-29 00:38:00,
2013-03-28 17:43:00,55.2,50.8,30.09,SW,217,0.0,0.0,85,0.00,SCT,SCT,0.03,WeatherDisplay:10.37,2013-03-29 00:43:00,
2013-03-28 17:48:00,55.7,50.3,30.09,SSW,213,0.0,0.0,82,0.00,SCT,SCT,0.03,WeatherDisplay:10.37,2013-03-29 00:48:00,
2013-03-28 17:53:00,56.1,50.0,30.09,WSW,240,0.0,0.0,80,0.00,SCT,SCT,0.03,WeatherDisplay:10.37,2013-03-29 00:53:00,
2013-03-28 17:58:00,56.4,49.9,30.09,West,259,0.0,1.0,79,0.00,SCT,SCT,0.03,WeatherDisplay:10.37,2013-03-29 00:58:00,
2013-03-28 18:03:00,56.3,49.5,30.09,WSW,255,1.0,3.0,78,0.00,SCT,SCT,0.03,WeatherDisplay:10.37,2013-03-29 01:03:00,
2013-03-28 18:08:00,56.1,49.3,30.09,WSW,253,1.0,3.0,78,0.00,SCT,SCT,0.03,WeatherDisplay:10.37,2013-03-29 01:08:00,
2013-03-28 18:13:00,56.0,49.6,30.09,SW,221,0.0,2.0,79,0.00,SCT,SCT,0.03,WeatherDisplay:10.37,2013-03-29 01:13:00,
2013-03-28 18:18:00,55.8,49.7,30.09,SW,228,0.0,1.0,80,0.00,SCT,SCT,0.03,WeatherDisplay:10.37,2013-03-29 01:18:00,
2013-03-28 18:23:00,55.5,49.5,30.09,NNW,342,0.0,1.0,80,0.00,SCT,SCT,0.03,WeatherDisplay:10.37,2013-03-29 01:23:00,
2013-03-28 18:28:00,55.2,49.1,30.09,WNW,297,0.0,3.0,80,0.00,SCT,SCT,0.03,WeatherDisplay:10.37,2013-03-29 01:28:00,
2013-03-28 18:33:00,54.8,49.4,30.09,West,270,0.0,1.0,82,0.00,SCT,SCT,0.03,WeatherDisplay:10.37,2013-03-29 01:33:00,
2013-03-28 18:38:00,54.5,48.8,30.09,West,262,0.0,2.0,81,0.00,SCT,SCT,0.03,WeatherDisplay:10.37,2013-03-29 01:38:00,
2013-03-28 18:43:00,54.3,48.6,30.09,WSW,256,0.0,1.0,81,0.00,SCT,SCT,0.03,WeatherDisplay:10.37,2013-03-29 01:43:00,
2013-03-28 18:48:00,54.1,48.4,30.10,WSW,258,0.0,1.0,81,0.00,SCT,SCT,0.03,WeatherDisplay:10.37,2013-03-29 01:48:00,
2013-03-28 18:53:00,53.8,48.4,30.10,WSW,258,0.0,2.0,82,0.00,SCT,SCT,0.03,WeatherDisplay:10.37,2013-03-29 01:53:00,
2013-03-28 18:58:00,53.5,48.5,30.10,NNW,345,0.0,2.0,83,0.00,SCT,SCT,0.03,WeatherDisplay:10.37,2013-03-29 01:58:00,
2013-03-28 19:03:00,53.2,48.2,30.10,West,270,1.0,2.0,83,0.00,SCT,SCT,0.03,WeatherDisplay:10.37,2013-03-29 02:03:00,
2013-03-28 19:08:00,52.9,48.2,30.10,SW,216,0.0,2.0,84,0.00,SCT,SCT,0.03,WeatherDisplay:10.37,2013-03-29 02:08:00,
2013-03-28 19:13:00,52.7,48.3,30.10,SW,234,0.0,1.0,85,0.00,SCT,SCT,0.03,WeatherDisplay:10.37,2013-03-29 02:13:00,
2013-03-28 19:18:00,52.5,48.1,30.10,South,178,0.0,1.0,85,0.00,SCT,SCT,0.03,WeatherDisplay:10.37,2013-03-29 02:18:00,
2013-03-28 19:23:00,52.2,47.8,30.10,ENE,62,0.0,1.0,85,0.00,SCT,SCT,0.03,WeatherDisplay:10.37,2013-03-29 02:23:00,
2013-03-28 19:28:00,51.9,47.5,30.10,NW,308,0.0,1.0,85,0.00,SCT,SCT,0.03,WeatherDisplay:10.37,2013-03-29 02:28:00,
2013-03-28 19:33:00,51.6,47.5,30.10,West,279,0.0,0.0,86,0.00,SCT,SCT,0.03,WeatherDisplay:10.37,2013-03-29 02:33:00,
2013-03-28 19:38:00,51.3,47.3,30.10,West,281,0.0,0.0,86,0.00,SCT,SCT,0.03,WeatherDisplay:10.37,2013-03-29 02:38:00,
2013-03-28 19:43:00,51.0,47.2,30.10,West,281,0.0,0.0,87,0.00,SCT,SCT,0.03,WeatherDisplay:10.37,2013-03-29 02:43:00,
2013-03-28 19:48:00,50.6,46.9,30.10,West,281,0.0,0.0,87,0.00,SCT,SCT,0.03,WeatherDisplay:10.37,2013-03-29 02:48:00,
2013-03-28 19:58:00,49.8,46.4,30.11,West,281,0.0,0.0,88,0.00,SCT,SCT,0.03,WeatherDisplay:10.37,2013-03-29 02:58:00,
2013-03-28 20:03:00,49.4,46.6,30.11,West,281,0.0,0.0,90,0.00,SCT,SCT,0.03,WeatherDisplay:10.37,2013-03-29 03:03:00,
2013-03-28 20:08:00,49.1,46.3,30.11,West,281,0.0,0.0,90,0.00,SCT,SCT,0.03,WeatherDisplay:10.37,2013-03-29 03:08:00,
2013-03-28 20:13:00,48.7,45.9,30.11,West,281,0.0,0.0,90,0.00,SCT,SCT,0.03,WeatherDisplay:10.37,2013-03-29 03:13:00,
2013-03-28 20:18:00,48.2,45.4,30.11,West,281,0.0,0.0,90,0.00,SCT,SCT,0.03,WeatherDisplay:10.37,2013-03-29 03:18:00,
2013-03-28 20:23:00,47.9,45.4,30.12,West,281,0.0,0.0,91,0.00,SCT,SCT,0.03,WeatherDisplay:10.37,2013-03-29 03:23:00,
2013-03-28 20:33:00,47.4,45.2,30.12,West,281,0.0,0.0,92,0.00,SCT,SCT,0.03,WeatherDisplay:10.37,2013-03-29 03:33:00,
2013-03-28 20:38:00,47.2,45.0,30.12,West,281,0.0,0.0,92,0.00,SCT,SCT,0.03,WeatherDisplay:10.37,2013-03-29 03:38:00,
2013-03-28 20:43:00,46.9,45.0,30.12,West,281,0.0,0.0,93,0.00,SCT,SCT,0.03,WeatherDisplay:10.37,2013-03-29 03:43:00,
2013-03-28 20:48:00,46.7,44.8,30.12,West,281,0.0,0.0,93,0.00,SCT,SCT,0.03,WeatherDisplay:10.37,2013-03-29 03:48:00,
2013-03-28 20:53:00,46.5,44.6,30.12,West,281,0.0,0.0,93,0.00,SCT,SCT,0.03,WeatherDisplay:10.37,2013-03-29 03:53:00,
2013-03-28 20:58:00,46.3,44.3,30.12,West,281,0.0,0.0,93,0.00,SCT,SCT,0.03,WeatherDisplay:10.37,2013-03-29 03:58:00,
2013-03-28 21:03:00,46.0,44.4,30.12,West,281,0.0,0.0,94,0.00,SCT,SCT,0.03,WeatherDisplay:10.37,2013-03-29 04:03:00,
2013-03-28 21:08:00,45.9,44.3,30.13,West,281,0.0,0.0,94,0.00,SCT,SCT,0.03,WeatherDisplay:10.37,2013-03-29 04:08:00,
2013-03-28 21:13:00,45.8,44.2,30.12,West,281,0.0,0.0,94,0.00,SCT,SCT,0.03,WeatherDisplay:10.37,2013-03-29 04:13:00,
2013-03-28 21:18:00,45.7,44.0,30.13,West,281,0.0,0.0,94,0.00,SCT,SCT,0.03,WeatherDisplay:10.37,2013-03-29 04:18:00,
2013-03-28 21:23:00,45.6,44.2,30.13,West,281,0.0,0.0,95,0.00,SCT,SCT,0.03,WeatherDisplay:10.37,2013-03-29 04:23:00,
2013-03-28 21:28:00,45.4,44.1,30.13,West,281,0.0,0.0,95,0.00,SCT,SCT,0.03,WeatherDisplay:10.37,2013-03-29 04:28:00,
2013-03-28 21:33:00,45.3,44.0,30.13,West,281,0.0,0.0,95,0.00,SCT,SCT,0.03,WeatherDisplay:10.37,2013-03-29 04:33:00,
2013-03-28 21:38:00,45.2,43.9,30.13,West,281,0.0,0.0,95,0.00,SCT,SCT,0.03,WeatherDisplay:10.37,2013-03-29 04:38:00,
2013-03-28 21:43:00,45.0,43.7,30.13,West,281,0.0,0.0,95,0.00,SCT,SCT,0.03,WeatherDisplay:10.37,2013-03-29 04:43:00,
2013-03-28 21:48:00,44.8,43.5,30.13,West,281,0.0,0.0,95,0.00,SCT,SCT,0.03,WeatherDisplay:10.37,2013-03-29 04:48:00,
2013-03-28 21:53:00,44.7,43.3,30.14,West,281,0.0,0.0,95,0.00,SCT,SCT,0.03,WeatherDisplay:10.37,2013-03-29 04:53:00,
2013-03-28 21:58:00,44.6,43.2,30.14,West,281,0.0,0.0,95,0.00,SCT,SCT,0.03,WeatherDisplay:10.37,2013-03-29 04:58:00,
2013-03-28 22:03:00,44.5,43.2,30.14,West,281,0.0,0.0,95,0.00,SCT,SCT,0.03,WeatherDisplay:10.37,2013-03-29 05:03:00,
2013-03-28 22:08:00,44.4,43.1,30.14,West,281,0.0,0.0,95,0.00,SCT,SCT,0.03,WeatherDisplay:10.37,2013-03-29 05:08:00,
2013-03-28 22:13:00,44.2,42.9,30.14,West,281,0.0,0.0,95,0.00,SCT,SCT,0.03,WeatherDisplay:10.37,2013-03-29 05:13:00,
2013-03-28 22:18:00,44.0,42.7,30.14,West,281,0.0,0.0,95,0.00,SCT,SCT,0.03,WeatherDisplay:10.37,2013-03-29 05:18:00,
2013-03-28 22:23:00,43.9,42.8,30.14,West,281,0.0,0.0,96,0.00,SCT,SCT,0.03,WeatherDisplay:10.37,2013-03-29 05:23:00,
2013-03-28 22:28:00,44.0,42.9,30.14,West,281,0.0,0.0,96,0.00,SCT,SCT,0.03,WeatherDisplay:10.37,2013-03-29 05:28:00,
2013-03-28 22:33:00,43.9,42.8,30.15,West,281,0.0,0.0,96,0.00,SCT,SCT,0.03,WeatherDisplay:10.37,2013-03-29 05:33:00,
2013-03-28 22:38:00,43.9,42.8,30.15,West,281,0.0,0.0,96,0.00,SCT,SCT,0.03,WeatherDisplay:10.37,2013-03-29 05:38:00,
2013-03-28 22:43:00,43.9,42.8,30.15,West,281,0.0,0.0,96,0.00,SCT,SCT,0.03,WeatherDisplay:10.37,2013-03-29 05:43:00,
2013-03-28 22:48:00,44.0,42.9,30.15,West,281,0.0,0.0,96,0.00,SCT,SCT,0.03,WeatherDisplay:10.37,2013-03-29 05:48:00,
2013-03-28 22:53:00,44.0,43.0,30.15,West,281,0.0,0.0,96,0.00,SCT,SCT,0.03,WeatherDisplay:10.37,2013-03-29 05:53:00,
2013-03-28 22:58:00,44.2,43.1,30.15,West,281,0.0,0.0,96,0.00,SCT,SCT,0.03,WeatherDisplay:10.37,2013-03-29 05:58:00,
2013-03-28 23:03:00,44.3,43.2,30.15,West,281,0.0,0.0,96,0.00,SCT,SCT,0.03,WeatherDisplay:10.37,2013-03-29 06:03:00,
2013-03-28 23:08:00,44.3,43.2,30.16,West,281,0.0,0.0,96,0.00,SCT,SCT,0.03,WeatherDisplay:10.37,2013-03-29 06:08:00,
2013-03-28 23:13:00,44.5,43.7,30.16,West,281,0.0,0.0,97,0.00,SCT,SCT,0.03,WeatherDisplay:10.37,2013-03-29 06:13:00,
2013-03-28 23:18:00,44.6,43.5,30.16,West,281,0.0,0.0,96,0.00,SCT,SCT,0.03,WeatherDisplay:10.37,2013-03-29 06:18:00,
2013-03-28 23:23:00,44.5,43.4,30.16,West,281,0.0,0.0,96,0.00,SCT,SCT,0.03,WeatherDisplay:10.37,2013-03-29 06:23:00,
2013-03-28 23:28:00,44.3,43.3,30.16,West,281,0.0,0.0,96,0.00,SCT,SCT,0.03,WeatherDisplay:10.37,2013-03-29 06:28:00,
2013-03-28 23:33:00,44.2,43.1,30.16,West,281,0.0,0.0,96,0.00,SCT,SCT,0.03,WeatherDisplay:10.37,2013-03-29 06:33:00,
2013-03-28 23:38:00,44.0,42.9,30.16,West,281,0.0,0.0,96,0.00,SCT,SCT,0.03,WeatherDisplay:10.37,2013-03-29 06:38:00,
2013-03-28 23:43:00,43.7,42.6,30.16,West,281,0.0,0.0,96,0.00,SCT,SCT,0.03,WeatherDisplay:10.37,2013-03-29 06:43:00,
2013-03-28 23:48:00,43.6,42.5,30.16,West,281,0.0,0.0,96,0.00,SCT,SCT,0.03,WeatherDisplay:10.37,2013-03-29 06:48:00,
2013-03-28 23:53:00,43.6,42.6,30.16,West,281,0.0,0.0,96,0.00,SCT,SCT,0.03,WeatherDisplay:10.37,2013-03-29 06:53:00,
2013-03-28 23:58:00,43.7,42.6,30.16,West,281,0.0,0.0,96,0.00,SCT,SCT,0.03,WeatherDisplay:10.37,2013-03-29 06:58:00,